createdAt,value
2019-03-19T00:00:15.457Z,98770.30
2019-03-19T00:02:43.962Z,98769.45
2019-03-19T00:05:12.424Z,98781.20
2019-03-19T00:07:40.987Z,98776.53
2019-03-19T00:10:10.099Z,98773.49
2019-03-19T00:12:38.673Z,98775.97
2019-03-19T00:15:09.630Z,98767.83
2019-03-19T00:17:38.096Z,98774.16
2019-03-19T00:20:16.655Z,98775.22
2019-03-19T00:22:45.355Z,98773.04
2019-03-19T00:25:13.992Z,98781.23
2019-03-19T00:27:42.490Z,98777.14
2019-03-19T00:30:16.236Z,98778.23
2019-03-19T00:32:44.751Z,98784.53
2019-03-19T00:35:13.480Z,98782.89
2019-03-19T00:37:41.975Z,98786.47
2019-03-19T00:40:12.112Z,98784.80
2019-03-19T00:42:40.578Z,98782.61
2019-03-19T00:45:11.411Z,98782.34
2019-03-19T00:47:39.876Z,98779.90
2019-03-19T00:50:12.716Z,98781.27
2019-03-19T00:52:41.182Z,98781.80
2019-03-19T00:55:10.119Z,98785.34
2019-03-19T00:57:38.589Z,98798.52
2019-03-19T01:00:10.218Z,98791.95
2019-03-19T01:02:38.685Z,98797.95
2019-03-19T01:05:08.916Z,98789.45
2019-03-19T01:07:37.391Z,98789.19
2019-03-19T01:10:13.623Z,98790.55
2019-03-19T01:12:42.232Z,98795.75
2019-03-19T01:15:15.211Z,98797.69
2019-03-19T01:17:43.806Z,98795.49
2019-03-19T01:20:14.862Z,98786.45
2019-03-19T01:22:43.366Z,98793.58
2019-03-19T01:25:11.986Z,98795.49
2019-03-19T01:27:40.452Z,98793.03
2019-03-19T01:30:11.762Z,98798.77
2019-03-19T01:32:40.297Z,98799.61
2019-03-19T01:35:08.855Z,98807.55
2019-03-19T01:37:37.527Z,98806.42
2019-03-19T01:40:11.165Z,98807.55
2019-03-19T01:42:39.783Z,98803.16
2019-03-19T01:45:14.473Z,98804.53
2019-03-19T01:47:43.035Z,98802.88
2019-03-19T01:50:13.782Z,98805.59
2019-03-19T01:52:43.302Z,98805.86
2019-03-19T01:55:13.204Z,98805.59
2019-03-19T01:57:41.810Z,98797.36
2019-03-19T02:00:12.627Z,98801.44
2019-03-19T02:02:41.200Z,98803.41
2019-03-19T02:05:09.905Z,98806.16
2019-03-19T02:07:38.471Z,98803.44
2019-03-19T02:10:12.130Z,98814.64
2019-03-19T02:12:40.684Z,98808.91
2019-03-19T02:15:18.611Z,98814.94
2019-03-19T02:17:47.161Z,98823.98
2019-03-19T02:20:16.977Z,98819.58
2019-03-19T02:22:45.799Z,98829.17
2019-03-19T02:25:15.330Z,98826.14
2019-03-19T02:27:43.748Z,98831.38
2019-03-19T02:30:14.461Z,98831.38
2019-03-19T02:32:42.939Z,98829.71
2019-03-19T02:35:11.720Z,98838.77
2019-03-19T02:37:40.223Z,98842.05
2019-03-19T02:40:17.514Z,98838.75
2019-03-19T02:42:45.995Z,98842.60
2019-03-19T02:45:15.425Z,98849.44
2019-03-19T02:47:44.018Z,98850.27
2019-03-19T02:50:17.519Z,98848.08
2019-03-19T02:52:46.171Z,98857.11
2019-03-19T02:55:14.634Z,98854.67
2019-03-19T02:57:43.130Z,98855.44
2019-03-19T03:00:20.704Z,98857.92
2019-03-19T03:02:49.251Z,98861.74
2019-03-19T03:05:21.555Z,98865.05
2019-03-19T03:07:50.210Z,98860.39
2019-03-19T03:10:18.697Z,98870.53
2019-03-19T03:12:47.156Z,98869.72
2019-03-19T03:15:16.304Z,98879.31
2019-03-19T03:17:44.922Z,98879.03
2019-03-19T03:20:14.951Z,98889.45
2019-03-19T03:22:43.582Z,98882.30
2019-03-19T03:25:16.330Z,98889.17
2019-03-19T03:27:44.984Z,98894.90
2019-03-19T03:30:23.253Z,98897.84
2019-03-19T03:32:51.965Z,98895.36
2019-03-19T03:35:20.603Z,98910.09
2019-03-19T03:37:49.144Z,98905.02
2019-03-19T03:40:18.884Z,98901.59
2019-03-19T03:42:47.416Z,98906.21
2019-03-19T03:45:16.837Z,98904.52
2019-03-19T03:47:45.337Z,98918.06
2019-03-19T03:50:17.494Z,98907.66
2019-03-19T03:52:46.024Z,98906.66
2019-03-19T03:55:15.663Z,98908.99
2019-03-19T03:57:44.152Z,98907.75
2019-03-19T04:00:14.980Z,98908.06
2019-03-19T04:02:44.914Z,98906.89
2019-03-19T04:05:13.858Z,98911.40
2019-03-19T04:07:42.319Z,98908.80
2019-03-19T04:10:12.562Z,98912.25
2019-03-19T04:12:41.030Z,98909.02
2019-03-19T04:15:12.558Z,98912.52
2019-03-19T04:17:41.143Z,98921.67
2019-03-19T04:20:11.367Z,98938.39
2019-03-19T04:22:39.916Z,98925.06
2019-03-19T04:25:10.051Z,98929.86
2019-03-19T04:27:40.345Z,98938.96
2019-03-19T04:30:19.860Z,98946.75
2019-03-19T04:32:48.633Z,98940.23
2019-03-19T04:35:17.289Z,98946.11
2019-03-19T04:37:45.759Z,98948.41
2019-03-19T04:40:15.582Z,98947.81
2019-03-19T04:42:44.808Z,98943.38
2019-03-19T04:45:17.308Z,98955.28
2019-03-19T04:47:45.790Z,98966.53
2019-03-19T04:50:15.295Z,98968.02
2019-03-19T04:52:43.960Z,98965.64
2019-03-19T04:55:16.388Z,98967.69
2019-03-19T04:57:44.938Z,98975.30
2019-03-19T05:00:18.672Z,98979.09
2019-03-19T05:02:47.153Z,98984.67
2019-03-19T05:05:15.770Z,98986.95
2019-03-19T05:07:44.328Z,98987.67
2019-03-19T05:10:14.997Z,98986.95
2019-03-19T05:12:43.573Z,98995.90
2019-03-19T05:15:12.438Z,99001.36
2019-03-19T05:17:40.899Z,99000.55
2019-03-19T05:20:15.081Z,99000.64
2019-03-19T05:22:43.692Z,99009.38
2019-03-19T05:25:12.328Z,99004.94
2019-03-19T05:27:40.870Z,99004.67
2019-03-19T05:30:15.225Z,99011.93
2019-03-19T05:32:43.752Z,99018.59
2019-03-19T05:35:12.311Z,99026.52
2019-03-19T05:37:40.781Z,99030.47
2019-03-19T05:40:13.858Z,99026.20
2019-03-19T05:42:42.394Z,99030.61
2019-03-19T05:45:12.604Z,99026.91
2019-03-19T05:47:41.092Z,99039.75
2019-03-19T05:50:20.535Z,99032.36
2019-03-19T05:52:49.046Z,99038.25
2019-03-19T05:55:17.492Z,99036.05
2019-03-19T05:57:49.960Z,99042.38
2019-03-19T06:00:19.994Z,99046.23
2019-03-19T06:02:48.482Z,99039.48
2019-03-19T06:05:17.020Z,99047.98
2019-03-19T06:07:45.545Z,99050.95
2019-03-19T06:10:14.644Z,99051.03
2019-03-19T06:12:43.179Z,99058.98
2019-03-19T06:15:13.766Z,99059.18
2019-03-19T06:17:42.233Z,99068.56
2019-03-19T06:20:16.452Z,99063.69
2019-03-19T06:22:45.044Z,99069.00
2019-03-19T06:25:14.166Z,99069.84
2019-03-19T06:27:42.802Z,99071.74
2019-03-19T06:30:19.267Z,99073.58
2019-03-19T06:32:47.758Z,99075.36
2019-03-19T06:35:17.056Z,99079.78
2019-03-19T06:37:45.739Z,99081.03
2019-03-19T06:40:16.715Z,99078.08
2019-03-19T06:42:45.187Z,99082.19
2019-03-19T06:45:18.784Z,99082.19
2019-03-19T06:47:47.348Z,99086.81
2019-03-19T06:50:19.383Z,99093.13
2019-03-19T06:52:47.892Z,99098.91
2019-03-19T06:55:17.407Z,99100.55
2019-03-19T06:57:45.923Z,99104.94
2019-03-19T07:00:22.005Z,99099.72
2019-03-19T07:02:50.573Z,99101.13
2019-03-19T07:05:22.784Z,99105.48
2019-03-19T07:07:51.493Z,99104.66
2019-03-19T07:10:21.385Z,99105.47
2019-03-19T07:12:49.924Z,99111.55
2019-03-19T07:15:22.401Z,99107.37
2019-03-19T07:17:50.950Z,99110.92
2019-03-19T07:20:24.110Z,99118.36
2019-03-19T07:22:52.644Z,99120.61
2019-03-19T07:25:21.288Z,99118.13
2019-03-19T07:27:49.754Z,99116.87
2019-03-19T07:30:19.588Z,99118.38
2019-03-19T07:32:48.157Z,99124.18
2019-03-19T07:35:16.906Z,99123.63
2019-03-19T07:37:45.371Z,99121.98
2019-03-19T07:40:15.104Z,99128.55
2019-03-19T07:42:43.708Z,99128.46
2019-03-19T07:45:26.027Z,99123.05
2019-03-19T07:47:55.127Z,99127.23
2019-03-19T07:50:24.251Z,99133.25
2019-03-19T07:52:52.750Z,99133.20
2019-03-19T07:55:21.320Z,99131.81
2019-03-19T07:57:49.799Z,99134.73
2019-03-19T08:00:22.150Z,99133.62
2019-03-19T08:02:50.714Z,99143.62
2019-03-19T08:05:19.183Z,99147.69
2019-03-19T08:07:47.684Z,99136.98
2019-03-19T08:10:19.885Z,99138.77
2019-03-19T08:12:48.383Z,99146.06
2019-03-19T08:15:18.827Z,99141.91
2019-03-19T08:17:47.407Z,99141.66
2019-03-19T08:20:16.508Z,99143.90
2019-03-19T08:22:45.037Z,99147.62
2019-03-19T08:25:14.585Z,99149.89
2019-03-19T08:27:43.192Z,99155.56
2019-03-19T08:30:25.652Z,99157.83
2019-03-19T08:32:55.241Z,99157.69
2019-03-19T08:35:23.746Z,99162.11
2019-03-19T08:37:52.220Z,99165.95
2019-03-19T08:40:21.263Z,99163.14
2019-03-19T08:42:49.722Z,99170.11
2019-03-19T08:45:22.351Z,99171.16
2019-03-19T08:47:50.909Z,99166.09
2019-03-19T08:50:22.454Z,99160.94
2019-03-19T08:52:51.056Z,99172.41
2019-03-19T08:55:19.719Z,99167.95
2019-03-19T08:57:48.190Z,99172.95
2019-03-19T09:00:23.927Z,99175.83
2019-03-19T09:02:52.431Z,99179.58
2019-03-19T09:05:20.890Z,99176.34
2019-03-19T09:07:49.378Z,99183.63
2019-03-19T09:10:18.888Z,99179.75
2019-03-19T09:12:48.686Z,99186.73
2019-03-19T09:15:19.160Z,99183.61
2019-03-19T09:17:47.644Z,99192.28
2019-03-19T09:20:17.151Z,99195.44
2019-03-19T09:22:45.965Z,99194.44
2019-03-19T09:25:14.668Z,99200.48
2019-03-19T09:27:43.145Z,99199.75
2019-03-19T09:30:19.644Z,99201.91
2019-03-19T09:32:48.123Z,99203.94
2019-03-19T09:35:16.607Z,99220.28
2019-03-19T09:37:57.194Z,99216.52
2019-03-19T09:40:19.583Z,99210.19
2019-03-19T09:42:48.189Z,99213.03
2019-03-19T09:45:17.625Z,99213.17
2019-03-19T09:47:46.802Z,99214.25
2019-03-19T09:50:22.378Z,99212.89
2019-03-19T09:52:50.921Z,99204.37
2019-03-19T09:55:19.491Z,99209.86
2019-03-19T09:57:48.025Z,99206.89
2019-03-19T10:00:19.547Z,99217.13
2019-03-19T10:02:48.354Z,99213.56
2019-03-19T10:05:16.962Z,99206.73
2019-03-19T10:07:45.528Z,99215.28
2019-03-19T10:10:16.214Z,99210.31
2019-03-19T10:12:44.742Z,99211.80
2019-03-19T10:15:13.739Z,99210.06
2019-03-19T10:17:42.238Z,99208.31
2019-03-19T10:20:17.869Z,99205.63
2019-03-19T10:22:46.931Z,99210.02
2019-03-19T10:25:16.532Z,99216.98
2019-03-19T10:27:45.045Z,99216.97
2019-03-19T10:30:18.645Z,99213.47
2019-03-19T10:32:47.543Z,99215.19
2019-03-19T10:35:16.471Z,99215.99
2019-03-19T10:37:45.042Z,99206.91
2019-03-19T10:40:15.930Z,99200.63
2019-03-19T10:42:44.464Z,99189.88
2019-03-19T10:45:15.445Z,99189.88
2019-03-19T10:47:44.001Z,99211.31
2019-03-19T10:50:45.666Z,99201.05
2019-03-19T10:53:14.323Z,99197.60
2019-03-19T10:55:42.802Z,99206.38
2019-03-19T10:58:11.562Z,99201.92
2019-03-19T11:00:40.155Z,99195.82
2019-03-19T11:03:08.696Z,99202.70
2019-03-19T11:05:37.232Z,99190.63
2019-03-19T11:08:06.139Z,99193.27
2019-03-19T11:10:34.657Z,99192.20
2019-03-19T11:13:03.159Z,99187.66
2019-03-19T11:15:31.912Z,99179.53
2019-03-19T11:18:00.479Z,99184.63
2019-03-19T11:20:28.983Z,99181.45
2019-03-19T11:22:57.449Z,99190.42
2019-03-19T11:25:30.075Z,99196.67
2019-03-19T11:27:58.545Z,99202.69
2019-03-19T11:30:30.897Z,99201.79
2019-03-19T11:32:59.577Z,99198.54
2019-03-19T11:35:28.414Z,99198.26
2019-03-19T11:37:56.907Z,99191.10
2019-03-19T11:40:26.086Z,99196.77
2019-03-19T11:42:54.829Z,99198.16
2019-03-19T11:45:24.229Z,99195.41
2019-03-19T11:47:53.146Z,99192.67
2019-03-19T11:50:23.164Z,99191.20
2019-03-19T11:52:52.149Z,99193.25
2019-03-19T11:55:20.921Z,99186.37
2019-03-19T11:57:49.457Z,99191.80
2019-03-19T12:00:49.740Z,99188.67
2019-03-19T12:03:18.216Z,99179.60
2019-03-19T12:05:46.787Z,99190.07
2019-03-19T12:08:15.254Z,99186.42
2019-03-19T12:10:43.735Z,99181.77
2019-03-19T12:13:12.275Z,99194.19
2019-03-19T12:15:40.778Z,99194.97
2019-03-19T12:18:09.241Z,99200.09
2019-03-19T12:20:37.751Z,99195.63
2019-03-19T12:23:06.535Z,99187.03
2019-03-19T12:25:35.092Z,99188.41
2019-03-19T12:28:03.695Z,99180.74
2019-03-19T12:30:32.232Z,99196.86
2019-03-19T12:33:00.725Z,99188.06
2019-03-19T12:35:30.780Z,99190.70
2019-03-19T12:37:59.562Z,99186.48
2019-03-19T12:40:36.201Z,99188.31
2019-03-19T12:42:58.314Z,99187.27
2019-03-19T12:45:26.811Z,99193.42
2019-03-19T12:47:55.279Z,99202.69
2019-03-19T12:50:27.325Z,99203.91
2019-03-19T12:52:55.786Z,99204.31
2019-03-19T12:55:24.327Z,99197.88
2019-03-19T12:57:52.825Z,99193.31
2019-03-19T13:00:32.973Z,99192.16
2019-03-19T13:02:52.630Z,99188.87
2019-03-19T13:05:22.629Z,99188.17
2019-03-19T13:07:51.211Z,99184.20
2019-03-19T13:10:21.679Z,99203.16
2019-03-19T13:12:50.178Z,99200.13
2019-03-19T13:15:19.675Z,99200.52
2019-03-19T13:17:48.557Z,99199.31
2019-03-19T13:20:21.390Z,99201.08
2019-03-19T13:22:49.954Z,99199.67
2019-03-19T13:25:22.375Z,99192.19
2019-03-19T13:27:51.081Z,99190.95
2019-03-19T13:30:26.952Z,99185.87
2019-03-19T13:32:55.468Z,99189.66
2019-03-19T13:35:23.922Z,99190.22
2019-03-19T13:37:52.392Z,99188.95
2019-03-19T13:40:21.118Z,99188.86
2019-03-19T13:42:49.767Z,99187.14
2019-03-19T13:45:22.909Z,99188.78
2019-03-19T13:47:51.444Z,99190.23
2019-03-19T13:50:20.868Z,99192.50
2019-03-19T13:52:49.514Z,99187.06
2019-03-19T13:55:20.252Z,99196.80
2019-03-19T13:57:48.946Z,99187.94
2019-03-19T14:00:18.158Z,99194.05
2019-03-19T14:02:47.003Z,99201.39
2019-03-19T14:05:16.365Z,99206.41
2019-03-19T14:07:44.974Z,99209.79
2019-03-19T14:10:17.361Z,99209.31
2019-03-19T14:12:45.908Z,99215.34
2019-03-19T14:15:22.146Z,99204.25
2019-03-19T14:17:50.730Z,99209.62
2019-03-19T14:20:19.203Z,99213.75
2019-03-19T14:22:47.772Z,99214.27
2019-03-19T14:25:16.679Z,99212.25
2019-03-19T14:27:45.428Z,99215.80
2019-03-19T14:30:20.835Z,99220.57
2019-03-19T14:32:49.305Z,99219.97
2019-03-19T14:35:17.881Z,99212.11
2019-03-19T14:37:46.686Z,99221.89
2019-03-19T14:40:23.667Z,99227.06
2019-03-19T14:42:52.280Z,99222.92
2019-03-19T14:45:20.834Z,99229.35
2019-03-19T14:47:49.315Z,99230.04
2019-03-19T14:50:20.131Z,99232.52
2019-03-19T14:52:48.595Z,99235.38
2019-03-19T14:55:17.231Z,99233.17
2019-03-19T14:57:45.700Z,99237.67
2019-03-19T15:00:19.041Z,99229.09
2019-03-19T15:02:47.565Z,99233.69
2019-03-19T15:05:16.338Z,99240.69
2019-03-19T15:07:45.247Z,99233.09
2019-03-19T15:10:23.926Z,99234.83
2019-03-19T15:12:52.402Z,99236.51
2019-03-19T15:15:21.835Z,99239.28
2019-03-19T15:17:50.395Z,99244.20
2019-03-19T15:20:24.349Z,99245.03
2019-03-19T15:22:54.508Z,99241.16
2019-03-19T15:25:23.176Z,99247.61
2019-03-19T15:27:51.703Z,99245.13
2019-03-19T15:30:20.947Z,99252.07
2019-03-19T15:32:49.722Z,99255.97
2019-03-19T15:35:18.180Z,99262.88
2019-03-19T15:37:46.683Z,99258.57
2019-03-19T15:40:20.230Z,99261.92
2019-03-19T15:42:48.940Z,99271.22
2019-03-19T15:45:20.021Z,99273.78
2019-03-19T15:47:48.596Z,99272.70
2019-03-19T15:50:17.447Z,99277.49
2019-03-19T15:52:45.992Z,99276.94
2019-03-19T15:55:15.234Z,99284.18
2019-03-19T15:57:44.039Z,99280.28
2019-03-19T16:00:20.763Z,99288.11
2019-03-19T16:02:49.377Z,99294.78
2019-03-19T16:05:18.181Z,99294.84
2019-03-19T16:07:46.786Z,99301.19
2019-03-19T16:10:16.240Z,99307.58
2019-03-19T16:12:44.709Z,99309.97
2019-03-19T16:15:21.438Z,99314.87
2019-03-19T16:17:49.939Z,99324.75
2019-03-19T16:20:22.284Z,99329.55
2019-03-19T16:22:51.020Z,99331.19
2019-03-19T16:25:19.560Z,99342.70
2019-03-19T16:27:48.073Z,99339.77
2019-03-19T16:30:21.157Z,99341.97
2019-03-19T16:32:49.616Z,99343.98
2019-03-19T16:35:18.288Z,99346.03
2019-03-19T16:37:46.759Z,99348.54
2019-03-19T16:40:24.624Z,99350.92
2019-03-19T16:42:53.088Z,99351.95
2019-03-19T16:45:21.656Z,99366.12
2019-03-19T16:47:50.122Z,99361.80
2019-03-19T16:50:23.319Z,99365.57
2019-03-19T16:52:51.914Z,99378.80
2019-03-19T16:55:21.716Z,99378.80
2019-03-19T16:57:50.188Z,99377.97
2019-03-19T17:00:22.475Z,99387.88
2019-03-19T17:02:51.049Z,99394.73
2019-03-19T17:05:19.762Z,99393.92
2019-03-19T17:07:48.396Z,99401.64
2019-03-19T17:10:27.611Z,99390.59
2019-03-19T17:12:56.122Z,99408.75
2019-03-19T17:15:24.837Z,99417.30
2019-03-19T17:17:53.297Z,99418.12
2019-03-19T17:20:21.882Z,99420.57
2019-03-19T17:22:50.424Z,99414.77
2019-03-19T17:25:24.176Z,99420.75
2019-03-19T17:27:52.679Z,99422.21
2019-03-19T17:30:32.075Z,99426.86
2019-03-19T17:33:00.608Z,99432.06
2019-03-19T17:35:29.115Z,99436.78
2019-03-19T17:37:57.601Z,99441.48
2019-03-19T17:40:26.099Z,99451.83
2019-03-19T17:42:56.110Z,99445.88
2019-03-19T17:45:24.608Z,99448.89
2019-03-19T17:47:53.089Z,99447.76
2019-03-19T17:50:32.835Z,99446.73
2019-03-19T17:53:01.308Z,99452.75
2019-03-19T17:55:29.793Z,99459.06
2019-03-19T17:57:58.302Z,99461.49
2019-03-19T18:00:31.554Z,99465.37
2019-03-19T18:03:00.054Z,99466.50
2019-03-19T18:05:28.565Z,99469.48
2019-03-19T18:07:57.034Z,99470.27
2019-03-19T18:10:25.535Z,99478.73
2019-03-19T18:12:54.009Z,99475.64
2019-03-19T18:15:22.523Z,99474.95
2019-03-19T18:17:50.999Z,99476.59
2019-03-19T18:20:19.473Z,99479.86
2019-03-19T18:22:47.997Z,99479.23
2019-03-19T18:25:18.579Z,99486.68
2019-03-19T18:27:47.194Z,99485.38
2019-03-19T18:30:17.751Z,99491.78
2019-03-19T18:32:46.330Z,99488.84
2019-03-19T18:35:14.916Z,99497.73
2019-03-19T18:37:43.498Z,99503.83
2019-03-19T18:40:16.583Z,99501.35
2019-03-19T18:42:45.315Z,99502.45
2019-03-19T18:45:20.476Z,99505.39
2019-03-19T18:47:49.049Z,99508.41
2019-03-19T18:50:18.709Z,99514.20
2019-03-19T18:52:47.369Z,99513.95
2019-03-19T18:55:16.102Z,99523.01
2019-03-19T18:57:44.590Z,99533.14
2019-03-19T19:00:17.444Z,99523.55
2019-03-19T19:02:50.183Z,99527.94
2019-03-19T19:05:17.444Z,99530.93
2019-03-19T19:07:45.933Z,99539.42
2019-03-19T19:10:15.646Z,99539.16
2019-03-19T19:12:44.361Z,99539.00
2019-03-19T19:15:15.883Z,99532.64
2019-03-19T19:17:45.333Z,99537.60
2019-03-19T19:20:15.063Z,99545.57
2019-03-19T19:22:43.554Z,99551.33
2019-03-19T19:25:17.260Z,99546.89
2019-03-19T19:27:45.810Z,99554.30
2019-03-19T19:30:25.588Z,99557.53
2019-03-19T19:33:01.396Z,99559.77
2019-03-19T19:35:25.156Z,99568.19
2019-03-19T19:37:53.735Z,99563.58
2019-03-19T19:40:22.323Z,99565.16
2019-03-19T19:42:50.794Z,99564.34
2019-03-19T19:45:19.874Z,99565.34
2019-03-19T19:47:48.427Z,99573.14
2019-03-19T19:50:21.609Z,99571.56
2019-03-19T19:52:50.117Z,99574.02
2019-03-19T19:55:18.701Z,99570.95
2019-03-19T19:57:47.470Z,99575.42
2019-03-19T20:00:23.427Z,99575.59
2019-03-19T20:02:54.399Z,99579.23
2019-03-19T20:05:22.876Z,99581.92
2019-03-19T20:07:51.373Z,99586.91
2019-03-19T20:10:27.006Z,99584.61
2019-03-19T20:12:55.513Z,99585.63
2019-03-19T20:15:23.991Z,99589.02
2019-03-19T20:17:53.580Z,99591.03
2019-03-19T20:20:30.479Z,99593.22
2019-03-19T20:22:58.964Z,99588.78
2019-03-19T20:25:27.444Z,99595.77
2019-03-19T20:27:55.920Z,99599.30
2019-03-19T20:30:28.426Z,99595.67
2019-03-19T20:32:57.039Z,99598.08
2019-03-19T20:35:25.517Z,99598.55
2019-03-19T20:37:53.997Z,99601.89
2019-03-19T20:40:22.500Z,99609.58
2019-03-19T20:42:50.976Z,99608.03
2019-03-19T20:45:26.825Z,99604.89
2019-03-19T20:47:56.850Z,99612.45
2019-03-19T20:50:28.317Z,99617.77
2019-03-19T20:52:56.784Z,99622.27
2019-03-19T20:55:25.356Z,99622.13
2019-03-19T20:57:53.880Z,99628.34
2019-03-19T21:00:22.421Z,99622.38
2019-03-19T21:02:50.898Z,99627.80
2019-03-19T21:05:19.475Z,99633.55
2019-03-19T21:07:48.062Z,99634.04
2019-03-19T21:10:21.969Z,99634.59
2019-03-19T21:12:50.555Z,99635.19
2019-03-19T21:15:22.079Z,99641.03
2019-03-19T21:17:50.574Z,99641.41
2019-03-19T21:20:19.156Z,99628.25
2019-03-19T21:22:47.715Z,99635.05
2019-03-19T21:25:16.255Z,99640.48
2019-03-19T21:27:44.905Z,99642.37
2019-03-19T21:30:16.269Z,99640.18
2019-03-19T21:32:44.892Z,99638.77
2019-03-19T21:35:13.503Z,99644.72
2019-03-19T21:37:42.049Z,99636.68
2019-03-19T21:40:14.908Z,99643.87
2019-03-19T21:42:43.761Z,99643.61
2019-03-19T21:45:16.624Z,99649.31
2019-03-19T21:47:45.186Z,99650.09
2019-03-19T21:50:16.338Z,99648.69
2019-03-19T21:52:44.916Z,99654.36
2019-03-19T21:55:14.514Z,99656.50
2019-03-19T21:57:43.133Z,99654.06
2019-03-19T22:00:22.468Z,99657.62
2019-03-19T22:02:50.971Z,99653.47
2019-03-19T22:05:19.546Z,99656.00
2019-03-19T22:07:48.021Z,99655.19
2019-03-19T22:10:18.635Z,99664.23
2019-03-19T22:12:49.258Z,99658.74
2019-03-19T22:15:26.059Z,99658.15
2019-03-19T22:17:54.615Z,99664.91
2019-03-19T22:20:23.160Z,99663.75
2019-03-19T22:22:51.737Z,99664.00
2019-03-19T22:25:20.805Z,99667.42
2019-03-19T22:27:49.318Z,99663.27
2019-03-19T22:30:21.961Z,99670.03
2019-03-19T22:32:50.467Z,99668.95
2019-03-19T22:35:18.944Z,99671.75
2019-03-19T22:37:47.671Z,99672.30
2019-03-19T22:40:17.091Z,99673.20
2019-03-19T22:42:46.041Z,99673.45
2019-03-19T22:45:15.946Z,99669.91
2019-03-19T22:47:44.601Z,99670.47
2019-03-19T22:50:19.350Z,99673.59
2019-03-19T22:52:48.208Z,99672.48
2019-03-19T22:55:28.189Z,99680.11
2019-03-19T22:57:47.293Z,99677.84
2019-03-19T23:00:38.338Z,99680.45
2019-03-19T23:03:07.937Z,99682.34
2019-03-19T23:05:36.945Z,99683.93
2019-03-19T23:08:05.566Z,99692.28
2019-03-19T23:10:34.682Z,99696.66
2019-03-19T23:13:03.301Z,99702.98
2019-03-19T23:15:32.014Z,99698.88
2019-03-19T23:18:00.665Z,99704.46
2019-03-19T23:20:29.386Z,99709.09
2019-03-19T23:22:57.896Z,99706.55
2019-03-19T23:25:26.540Z,99713.24
2019-03-19T23:27:55.025Z,99717.39
2019-03-19T23:30:24.572Z,99711.94
2019-03-19T23:32:53.052Z,99719.37
2019-03-19T23:35:21.562Z,99714.56
2019-03-19T23:37:50.068Z,99722.02
2019-03-19T23:40:19.810Z,99721.97
2019-03-19T23:42:48.284Z,99715.01
2019-03-19T23:45:16.863Z,99728.34
2019-03-19T23:47:45.350Z,99724.05
2019-03-19T23:50:18.852Z,99724.73
2019-03-19T23:52:47.609Z,99733.22
2019-03-19T23:55:16.223Z,99730.98
2019-03-19T23:57:44.734Z,99738.70
